createdAt,value
2019-05-14T00:00:52.250Z,0.00
2019-05-14T00:01:51.497Z,0.00
2019-05-14T00:02:52.047Z,0.00
2019-05-14T00:03:51.588Z,0.00
2019-05-14T00:04:51.349Z,0.00
2019-05-14T00:05:51.694Z,0.00
2019-05-14T00:06:51.917Z,0.00
2019-05-14T00:07:52.132Z,0.00
2019-05-14T00:08:52.190Z,0.00
2019-05-14T00:09:51.915Z,0.00
2019-05-14T00:10:52.395Z,0.00
2019-05-14T00:11:51.256Z,0.00
2019-05-14T00:12:51.227Z,0.00
2019-05-14T00:13:52.024Z,0.00
2019-05-14T00:14:51.656Z,0.00
2019-05-14T00:15:51.953Z,0.00
2019-05-14T00:16:51.351Z,0.00
2019-05-14T00:17:52.029Z,0.00
2019-05-14T00:18:51.163Z,0.00
2019-05-14T00:20:05.891Z,0.00
2019-05-14T00:20:51.177Z,0.00
2019-05-14T00:21:51.305Z,0.00
2019-05-14T00:22:49.323Z,0.00
2019-05-14T00:23:51.234Z,0.00
2019-05-14T00:24:49.153Z,0.00
2019-05-14T00:25:49.122Z,0.00
2019-05-14T00:26:51.559Z,0.00
2019-05-14T00:27:49.000Z,0.00
2019-05-14T00:28:51.053Z,0.00
2019-05-14T00:29:48.737Z,0.00
2019-05-14T00:30:48.738Z,0.00
2019-05-14T00:31:48.566Z,0.00
2019-05-14T00:32:48.477Z,0.00
2019-05-14T00:33:48.420Z,0.00
2019-05-14T00:34:48.312Z,0.00
2019-05-14T00:35:48.242Z,0.00
2019-05-14T00:36:48.238Z,0.00
2019-05-14T00:37:48.054Z,0.00
2019-05-14T00:38:47.976Z,0.00
2019-05-14T00:39:47.959Z,0.00
2019-05-14T00:40:47.859Z,0.00
2019-05-14T00:41:47.756Z,0.00
2019-05-14T00:42:47.630Z,0.00
2019-05-14T00:43:47.574Z,0.00
2019-05-14T00:44:54.371Z,0.00
2019-05-14T00:45:47.517Z,0.00
2019-05-14T00:46:47.297Z,0.00
2019-05-14T00:47:47.289Z,0.00
2019-05-14T00:48:47.129Z,0.00
2019-05-14T00:49:47.046Z,0.00
2019-05-14T00:50:47.036Z,0.00
2019-05-14T00:51:46.875Z,0.00
2019-05-14T00:52:46.792Z,0.00
2019-05-14T00:53:47.746Z,0.00
2019-05-14T00:54:46.622Z,0.00
2019-05-14T00:55:46.553Z,0.00
2019-05-14T00:56:46.452Z,0.00
2019-05-14T00:57:46.437Z,0.00
2019-05-14T00:58:46.284Z,0.00
2019-05-14T00:59:46.197Z,0.00
2019-05-14T01:00:46.180Z,0.00
2019-05-14T01:01:46.064Z,0.00
2019-05-14T01:02:46.065Z,0.00
2019-05-14T01:03:45.864Z,0.00
2019-05-14T01:04:45.775Z,0.00
2019-05-14T01:05:45.720Z,0.00
2019-05-14T01:06:45.628Z,0.00
2019-05-14T01:07:45.528Z,0.00
2019-05-14T01:08:45.487Z,0.00
2019-05-14T01:09:45.356Z,0.00
2019-05-14T01:10:45.275Z,0.00
2019-05-14T01:11:45.232Z,0.00
2019-05-14T01:12:45.099Z,0.00
2019-05-14T01:13:45.013Z,0.00
2019-05-14T01:14:45.015Z,0.00
2019-05-14T01:15:44.846Z,0.00
2019-05-14T01:16:46.816Z,0.00
2019-05-14T01:17:44.678Z,0.00
2019-05-14T01:18:44.637Z,0.00
2019-05-14T01:19:44.513Z,0.00
2019-05-14T01:20:44.441Z,0.00
2019-05-14T01:21:44.354Z,0.00
2019-05-14T01:22:45.275Z,0.00
2019-05-14T01:23:44.179Z,0.00
2019-05-14T01:24:44.163Z,0.00
2019-05-14T01:25:44.009Z,0.00
2019-05-14T01:26:43.929Z,0.00
2019-05-14T01:27:45.926Z,0.00
2019-05-14T01:28:43.748Z,0.00
2019-05-14T01:29:43.663Z,0.00
2019-05-14T01:30:43.693Z,0.00
2019-05-14T01:31:43.508Z,0.00
2019-05-14T01:32:43.502Z,0.00
2019-05-14T01:33:43.325Z,0.00
2019-05-14T01:34:43.312Z,0.00
2019-05-14T01:35:43.158Z,0.00
2019-05-14T01:36:43.157Z,0.00
2019-05-14T01:37:42.982Z,0.00
2019-05-14T01:38:42.926Z,0.00
2019-05-14T01:39:42.811Z,0.00
2019-05-14T01:40:42.731Z,0.00
2019-05-14T01:41:42.683Z,0.00
2019-05-14T01:42:42.554Z,0.00
2019-05-14T01:43:42.477Z,0.00
2019-05-14T01:44:42.458Z,0.00
2019-05-14T01:45:42.302Z,0.00
2019-05-14T01:46:42.262Z,0.00
2019-05-14T01:47:42.175Z,0.00
2019-05-14T01:48:42.060Z,0.00
2019-05-14T01:49:42.781Z,0.00
2019-05-14T01:50:41.988Z,0.00
2019-05-14T01:51:42.313Z,0.00
2019-05-14T01:52:41.828Z,0.00
2019-05-14T01:53:41.893Z,0.00
2019-05-14T01:54:42.646Z,0.00
2019-05-14T01:55:41.634Z,0.00
2019-05-14T01:56:42.280Z,0.00
2019-05-14T01:57:42.487Z,0.00
2019-05-14T01:58:41.679Z,0.00
2019-05-14T01:59:42.822Z,0.00
2019-05-14T02:00:41.669Z,0.00
2019-05-14T02:01:41.659Z,0.00
2019-05-14T02:02:41.778Z,0.00
2019-05-14T02:03:41.202Z,0.00
2019-05-14T02:04:42.667Z,0.00
2019-05-14T02:05:41.604Z,0.00
2019-05-14T02:06:41.273Z,0.00
2019-05-14T02:07:42.052Z,0.00
2019-05-14T02:08:41.380Z,0.00
2019-05-14T02:09:42.073Z,0.00
2019-05-14T02:10:41.939Z,0.00
2019-05-14T02:11:41.487Z,0.00
2019-05-14T02:12:42.106Z,0.00
2019-05-14T02:13:41.439Z,0.00
2019-05-14T02:14:42.144Z,0.00
2019-05-14T02:15:42.797Z,0.00
2019-05-14T02:16:42.031Z,0.00
2019-05-14T02:17:41.399Z,0.00
2019-05-14T02:18:41.438Z,0.00
2019-05-14T02:19:39.418Z,0.00
2019-05-14T02:20:41.334Z,0.00
2019-05-14T02:21:42.317Z,0.00
2019-05-14T02:22:41.098Z,0.00
2019-05-14T02:23:39.078Z,0.00
2019-05-14T02:24:41.466Z,0.00
2019-05-14T02:25:41.152Z,0.00
2019-05-14T02:26:38.833Z,0.00
2019-05-14T02:27:38.747Z,0.00
2019-05-14T02:28:38.653Z,0.00
2019-05-14T02:29:38.562Z,0.00
2019-05-14T02:30:52.607Z,0.00
2019-05-14T02:31:39.220Z,0.00
2019-05-14T02:32:49.850Z,0.00
2019-05-14T02:33:39.745Z,0.00
2019-05-14T02:34:39.936Z,0.00
2019-05-14T02:35:39.826Z,0.00
2019-05-14T02:36:40.033Z,0.00
2019-05-14T02:37:40.166Z,0.00
2019-05-14T02:38:38.883Z,0.00
2019-05-14T02:39:40.600Z,0.00
2019-05-14T02:40:40.487Z,0.00
2019-05-14T02:41:39.202Z,0.00
2019-05-14T02:42:40.183Z,0.00
2019-05-14T02:43:40.645Z,0.00
2019-05-14T02:44:40.567Z,0.00
2019-05-14T02:45:45.162Z,0.00
2019-05-14T02:46:40.055Z,0.00
2019-05-14T02:47:39.822Z,0.00
2019-05-14T02:48:40.274Z,0.00
2019-05-14T02:49:39.775Z,0.00
2019-05-14T02:50:39.425Z,0.00
2019-05-14T02:51:39.152Z,0.00
2019-05-14T02:52:39.906Z,0.00
2019-05-14T02:53:39.078Z,0.00
2019-05-14T02:54:40.025Z,0.00
2019-05-14T02:55:38.889Z,0.00
2019-05-14T02:56:36.337Z,0.00
2019-05-14T02:57:39.165Z,0.00
2019-05-14T02:58:36.110Z,0.00
2019-05-14T02:59:39.098Z,0.00
2019-05-14T03:00:36.019Z,0.00
2019-05-14T03:01:39.985Z,4.00
2019-05-14T03:02:35.832Z,4.00
2019-05-14T03:03:35.673Z,0.00
2019-05-14T03:04:35.640Z,4.00
2019-05-14T03:05:35.497Z,4.00
2019-05-14T03:06:35.477Z,4.00
2019-05-14T03:07:35.325Z,4.00
2019-05-14T03:08:35.258Z,8.00
2019-05-14T03:09:35.190Z,8.00
2019-05-14T03:10:35.067Z,4.00
2019-05-14T03:11:35.114Z,8.00
2019-05-14T03:12:34.894Z,8.00
2019-05-14T03:13:34.808Z,12.00
2019-05-14T03:14:34.794Z,12.00
2019-05-14T03:15:34.643Z,12.00
2019-05-14T03:16:35.827Z,16.00
2019-05-14T03:17:34.507Z,16.00
2019-05-14T03:18:34.380Z,20.00
2019-05-14T03:19:34.315Z,28.00
2019-05-14T03:20:34.216Z,32.00
2019-05-14T03:21:34.125Z,32.00
2019-05-14T03:22:47.066Z,40.00
2019-05-14T03:23:33.982Z,48.00
2019-05-14T03:24:33.869Z,52.00
2019-05-14T03:25:41.324Z,60.00
2019-05-14T03:26:33.701Z,68.00
2019-05-14T03:27:33.643Z,76.00
2019-05-14T03:28:33.559Z,88.00
2019-05-14T03:29:33.447Z,104.00
2019-05-14T03:30:33.375Z,116.00
2019-05-14T03:31:34.377Z,132.00
2019-05-14T03:32:33.550Z,144.00
2019-05-14T03:33:34.385Z,160.00
2019-05-14T03:34:33.897Z,180.00
2019-05-14T03:35:42.067Z,204.00
2019-05-14T03:36:35.242Z,228.00
2019-05-14T03:37:32.845Z,252.00
2019-05-14T03:38:32.670Z,276.00
2019-05-14T03:39:32.609Z,304.00
2019-05-14T03:40:32.493Z,336.00
2019-05-14T03:41:32.417Z,368.00
2019-05-14T03:42:32.350Z,400.00
2019-05-14T03:43:32.272Z,440.00
2019-05-14T03:44:32.155Z,476.00
2019-05-14T03:45:32.132Z,516.00
2019-05-14T03:46:45.610Z,556.00
2019-05-14T03:47:31.913Z,600.00
2019-05-14T03:48:40.072Z,644.00
2019-05-14T03:49:31.723Z,692.00
2019-05-14T03:50:31.653Z,740.00
2019-05-14T03:51:31.664Z,792.00
2019-05-14T03:52:31.484Z,840.00
2019-05-14T03:53:31.392Z,896.00
2019-05-14T03:54:31.307Z,948.00
2019-05-14T03:55:31.208Z,1000.00
2019-05-14T03:56:31.123Z,1060.00
2019-05-14T03:57:31.131Z,1116.00
2019-05-14T03:58:30.961Z,1176.00
2019-05-14T03:59:30.932Z,1240.00
2019-05-14T04:00:30.779Z,1300.00
2019-05-14T04:01:30.694Z,1372.00
2019-05-14T04:02:30.656Z,1444.00
2019-05-14T04:03:30.536Z,1512.00
2019-05-14T04:04:30.436Z,1580.00
2019-05-14T04:05:31.455Z,1644.00
2019-05-14T04:06:30.362Z,1712.00
2019-05-14T04:07:30.648Z,1780.00
2019-05-14T04:08:30.108Z,1856.00
2019-05-14T04:09:30.048Z,1932.00
2019-05-14T04:10:30.196Z,2004.00
2019-05-14T04:11:39.743Z,2080.00
2019-05-14T04:12:29.761Z,2152.00
2019-05-14T04:13:30.379Z,2220.00
2019-05-14T04:14:29.575Z,2292.00
2019-05-14T04:15:29.955Z,2364.00
2019-05-14T04:16:29.429Z,2440.00
2019-05-14T04:17:37.211Z,2504.00
2019-05-14T04:18:29.338Z,2572.00
2019-05-14T04:19:29.669Z,2640.00
2019-05-14T04:20:29.769Z,2696.00
2019-05-14T04:21:29.725Z,2764.00
2019-05-14T04:22:29.963Z,2840.00
2019-05-14T04:23:29.174Z,2912.00
2019-05-14T04:24:29.677Z,2956.00
2019-05-14T04:25:29.609Z,2988.00
2019-05-14T04:26:30.214Z,3008.00
2019-05-14T04:27:29.881Z,3044.00
2019-05-14T04:28:29.873Z,3112.00
2019-05-14T04:29:35.311Z,3216.00
2019-05-14T04:30:29.088Z,3600.00
2019-05-14T04:31:29.860Z,4012.00
2019-05-14T04:32:29.165Z,4136.00
2019-05-14T04:33:30.450Z,4204.00
2019-05-14T04:34:30.020Z,4284.00
2019-05-14T04:35:29.598Z,4420.00
2019-05-14T04:36:29.935Z,4544.00
2019-05-14T04:37:28.990Z,4608.00
2019-05-14T04:38:29.917Z,4584.00
2019-05-14T04:39:30.789Z,4348.00
2019-05-14T04:40:36.307Z,4096.00
2019-05-14T04:41:29.885Z,3904.00
2019-05-14T04:42:29.492Z,3828.00
2019-05-14T04:43:29.420Z,4064.00
2019-05-14T04:44:29.746Z,4124.00
2019-05-14T04:45:29.416Z,4012.00
2019-05-14T04:46:30.033Z,4112.00
2019-05-14T04:47:33.392Z,4276.00
2019-05-14T04:48:33.812Z,4420.00
2019-05-14T04:49:29.082Z,4500.00
2019-05-14T04:50:29.463Z,4536.00
2019-05-14T04:51:26.423Z,4628.00
2019-05-14T04:52:29.068Z,4700.00
2019-05-14T04:53:26.288Z,4648.00
2019-05-14T04:54:26.169Z,4580.00
2019-05-14T04:55:29.478Z,4548.00
2019-05-14T04:56:26.081Z,4620.00
2019-05-14T04:57:25.970Z,4712.00
2019-05-14T04:58:29.351Z,4760.00
2019-05-14T04:59:25.790Z,4872.00
2019-05-14T05:00:25.655Z,5164.00
2019-05-14T05:01:25.577Z,5668.00
2019-05-14T05:02:25.499Z,6252.00
2019-05-14T05:03:25.424Z,6424.00
2019-05-14T05:04:29.623Z,6420.00
2019-05-14T05:05:25.242Z,6552.00
2019-05-14T05:06:25.147Z,6664.00
2019-05-14T05:07:25.125Z,7060.00
2019-05-14T05:08:25.002Z,7396.00
2019-05-14T05:09:24.961Z,8052.00
2019-05-14T05:10:24.841Z,8416.00
2019-05-14T05:11:24.732Z,9044.00
2019-05-14T05:12:24.646Z,9160.00
2019-05-14T05:13:24.585Z,9452.00
2019-05-14T05:14:24.497Z,9544.00
2019-05-14T05:15:24.397Z,9556.00
2019-05-14T05:16:24.311Z,9056.00
2019-05-14T05:17:40.086Z,8552.00
2019-05-14T05:18:24.150Z,8720.00
2019-05-14T05:19:24.064Z,10668.00
2019-05-14T05:20:23.970Z,10184.00
2019-05-14T05:21:23.893Z,10120.00
2019-05-14T05:22:23.806Z,9484.00
2019-05-14T05:23:23.737Z,9352.00
2019-05-14T05:24:23.633Z,9276.00
2019-05-14T05:25:23.561Z,9940.00
2019-05-14T05:26:23.466Z,9932.00
2019-05-14T05:27:23.387Z,10248.00
2019-05-14T05:28:23.483Z,11256.00
2019-05-14T05:29:23.214Z,13136.00
2019-05-14T05:30:23.162Z,13140.00
2019-05-14T05:31:23.188Z,13648.00
2019-05-14T05:32:22.971Z,15488.00
2019-05-14T05:33:22.910Z,17472.00
2019-05-14T05:34:22.808Z,17824.00
2019-05-14T05:35:22.761Z,18112.00
2019-05-14T05:36:22.637Z,18752.00
2019-05-14T05:37:22.570Z,19072.00
2019-05-14T05:38:22.498Z,18816.00
2019-05-14T05:39:22.497Z,18688.00
2019-05-14T05:40:22.305Z,18272.00
2019-05-14T05:41:22.475Z,18880.00
2019-05-14T05:42:22.142Z,19456.00
2019-05-14T05:43:22.072Z,20320.00
2019-05-14T05:44:22.006Z,20736.00
2019-05-14T05:45:21.900Z,21056.00
2019-05-14T05:46:21.826Z,20928.00
2019-05-14T05:47:21.939Z,20672.00
2019-05-14T05:48:21.667Z,19360.00
2019-05-14T05:49:21.746Z,15400.00
2019-05-14T05:50:21.489Z,18528.00
2019-05-14T05:51:21.412Z,19552.00
2019-05-14T05:52:21.355Z,18976.00
2019-05-14T05:53:21.254Z,18656.00
2019-05-14T05:54:21.164Z,19904.00
2019-05-14T05:55:21.168Z,22720.00
2019-05-14T05:56:21.006Z,23424.00
2019-05-14T05:57:20.924Z,24320.00
2019-05-14T05:58:20.839Z,23872.00
2019-05-14T05:59:20.821Z,24192.00
2019-05-14T06:00:20.682Z,24864.00
2019-05-14T06:01:20.604Z,14688.00
2019-05-14T06:02:20.605Z,25504.00
2019-05-14T06:03:20.954Z,25184.00
2019-05-14T06:04:20.369Z,27232.00
2019-05-14T06:05:20.306Z,27968.00
2019-05-14T06:06:20.197Z,28640.00
2019-05-14T06:07:20.118Z,25600.00
2019-05-14T06:08:20.232Z,29280.00
2019-05-14T06:09:19.982Z,29888.00
2019-05-14T06:10:19.865Z,30240.00
2019-05-14T06:11:19.846Z,30624.00
2019-05-14T06:12:19.707Z,29696.00
2019-05-14T06:13:19.634Z,30976.00
2019-05-14T06:14:19.552Z,32384.00
2019-05-14T06:15:19.664Z,32704.00
2019-05-14T06:16:19.379Z,32800.00
2019-05-14T06:17:19.432Z,30432.00
2019-05-14T06:18:21.997Z,30272.00
2019-05-14T06:19:19.156Z,33056.00
2019-05-14T06:20:19.107Z,33088.00
2019-05-14T06:21:19.489Z,33344.00
2019-05-14T06:22:19.151Z,33472.00
2019-05-14T06:23:18.998Z,33440.00
2019-05-14T06:24:19.379Z,34592.00
2019-05-14T06:25:20.932Z,34496.00
2019-05-14T06:26:19.294Z,34432.00
2019-05-14T06:27:18.501Z,30240.00
2019-05-14T06:28:20.977Z,32000.00
2019-05-14T06:29:20.381Z,35264.00
2019-05-14T06:30:18.374Z,36544.00
2019-05-14T06:31:19.164Z,36864.00
2019-05-14T06:32:18.738Z,36384.00
2019-05-14T06:33:19.604Z,34912.00
2019-05-14T06:34:18.702Z,33024.00
2019-05-14T06:35:19.280Z,34048.00
2019-05-14T06:36:19.539Z,34656.00
2019-05-14T06:37:19.144Z,26656.00
2019-05-14T06:38:18.560Z,34208.00
2019-05-14T06:39:18.307Z,37632.00
2019-05-14T06:40:19.298Z,40960.00
2019-05-14T06:41:19.168Z,40576.00
2019-05-14T06:42:19.356Z,41856.00
2019-05-14T06:43:18.973Z,43296.00
2019-05-14T06:44:18.751Z,44128.00
2019-05-14T06:45:18.701Z,40832.00
2019-05-14T06:46:19.313Z,41120.00
2019-05-14T06:47:18.479Z,44224.00
2019-05-14T06:48:28.139Z,45600.00
2019-05-14T06:49:18.338Z,43968.00
2019-05-14T06:50:18.885Z,45216.00
2019-05-14T06:51:19.536Z,43584.00
2019-05-14T06:52:18.557Z,46560.00
2019-05-14T06:53:16.415Z,49888.00
2019-05-14T06:54:19.458Z,47872.00
2019-05-14T06:55:18.077Z,49984.00
2019-05-14T06:56:18.974Z,50560.00
2019-05-14T06:57:18.046Z,51072.00
2019-05-14T06:58:19.845Z,50880.00
2019-05-14T06:59:17.982Z,52608.00
2019-05-14T07:00:15.855Z,52864.00
2019-05-14T07:01:18.320Z,52832.00
2019-05-14T07:02:15.698Z,52736.00
2019-05-14T07:03:17.882Z,52896.00
2019-05-14T07:04:18.031Z,53088.00
2019-05-14T07:05:15.466Z,53568.00
2019-05-14T07:06:15.382Z,55040.00
2019-05-14T07:07:15.296Z,54336.00
2019-05-14T07:08:15.224Z,52224.00
2019-05-14T07:09:15.161Z,50400.00
2019-05-14T07:10:15.061Z,52928.00
2019-05-14T07:11:14.985Z,47776.00
2019-05-14T07:12:14.903Z,52032.00
2019-05-14T07:13:14.837Z,47648.00
2019-05-14T07:14:14.755Z,40416.00
2019-05-14T07:15:14.706Z,58208.00
2019-05-14T07:16:14.609Z,54976.00
2019-05-14T07:17:14.507Z,49376.00
2019-05-14T07:18:14.429Z,56032.00
2019-05-14T07:19:15.894Z,56352.00
2019-05-14T07:20:14.262Z,58848.00
2019-05-14T07:21:14.188Z,57376.00
2019-05-14T07:22:14.109Z,54432.00
2019-05-14T07:23:14.034Z,57184.00
2019-05-14T07:24:13.972Z,57792.00
2019-05-14T07:25:13.867Z,58464.00
2019-05-14T07:26:13.788Z,59520.00
2019-05-14T07:27:13.716Z,61888.00
2019-05-14T07:28:13.637Z,57920.00
2019-05-14T07:29:13.568Z,48864.00
2019-05-14T07:30:13.470Z,62240.00
2019-05-14T07:31:13.404Z,60448.00
2019-05-14T07:32:13.314Z,59840.00
2019-05-14T07:33:13.238Z,59136.00
2019-05-14T07:34:13.180Z,62592.00
2019-05-14T07:35:13.083Z,61056.00
2019-05-14T07:36:13.003Z,52000.00
2019-05-14T07:37:12.922Z,58560.00
2019-05-14T07:38:12.853Z,56864.00
2019-05-14T07:39:12.798Z,59680.00
2019-05-14T07:40:12.702Z,59168.00
2019-05-14T07:41:12.608Z,62016.00
2019-05-14T07:42:12.529Z,61792.00
2019-05-14T07:43:12.452Z,59936.00
2019-05-14T07:44:12.365Z,57568.00
2019-05-14T07:45:12.317Z,58016.00
2019-05-14T07:46:12.211Z,50496.00
2019-05-14T07:47:12.128Z,55104.00
2019-05-14T07:48:12.057Z,59200.00
2019-05-14T07:49:12.074Z,64832.00
2019-05-14T07:50:11.914Z,68640.00
2019-05-14T07:51:11.832Z,56992.00
2019-05-14T07:52:11.748Z,56128.00
2019-05-14T07:53:11.657Z,64992.00
2019-05-14T07:54:11.597Z,65728.00
2019-05-14T07:55:11.521Z,63296.00
2019-05-14T07:56:11.432Z,65088.00
2019-05-14T07:57:11.350Z,62176.00
2019-05-14T07:58:11.310Z,67360.00
2019-05-14T07:59:11.190Z,68672.00
2019-05-14T08:00:11.145Z,69568.00
2019-05-14T08:01:11.035Z,63328.00
2019-05-14T08:02:12.870Z,55136.00
2019-05-14T08:03:10.884Z,54624.00
2019-05-14T08:04:11.887Z,59040.00
2019-05-14T08:05:10.768Z,64992.00
2019-05-14T08:06:10.663Z,69280.00
2019-05-14T08:07:10.579Z,72320.00
2019-05-14T08:08:10.496Z,70592.00
2019-05-14T08:09:10.428Z,69280.00
2019-05-14T08:10:10.347Z,68096.00
2019-05-14T08:11:10.285Z,65568.00
2019-05-14T08:12:12.640Z,63744.00
2019-05-14T08:13:10.105Z,61536.00
2019-05-14T08:14:10.036Z,62464.00
2019-05-14T08:15:17.781Z,62496.00
2019-05-14T08:16:09.874Z,62848.00
2019-05-14T08:17:09.808Z,66592.00
2019-05-14T08:18:09.722Z,71424.00
2019-05-14T08:19:24.375Z,76096.00
2019-05-14T08:20:09.592Z,80288.00
2019-05-14T08:21:09.502Z,76896.00
2019-05-14T08:22:09.734Z,75232.00
2019-05-14T08:23:09.337Z,76352.00
2019-05-14T08:24:09.269Z,72256.00
2019-05-14T08:25:09.203Z,72896.00
2019-05-14T08:26:09.112Z,73888.00
2019-05-14T08:27:09.044Z,76960.00
2019-05-14T08:28:08.958Z,80064.00
2019-05-14T08:29:08.878Z,86912.00
2019-05-14T08:30:08.828Z,83296.00
2019-05-14T08:31:09.452Z,82816.00
2019-05-14T08:32:09.051Z,86656.00
2019-05-14T08:33:09.022Z,87936.00
2019-05-14T08:34:09.145Z,86272.00
2019-05-14T08:35:09.048Z,85600.00
2019-05-14T08:36:08.951Z,87872.00
2019-05-14T08:37:08.417Z,87936.00
2019-05-14T08:38:11.719Z,88448.00
2019-05-14T08:39:08.827Z,88608.00
2019-05-14T08:40:09.489Z,88512.00
2019-05-14T08:41:08.577Z,91616.00
2019-05-14T08:42:08.464Z,90496.00
2019-05-14T08:43:08.704Z,89312.00
2019-05-14T08:44:08.547Z,79520.00
2019-05-14T08:45:10.661Z,80992.00
2019-05-14T08:46:08.261Z,85088.00
2019-05-14T08:47:09.575Z,86336.00
2019-05-14T08:48:09.227Z,90112.00
2019-05-14T08:49:08.944Z,90560.00
2019-05-14T08:50:09.175Z,89216.00
2019-05-14T08:51:09.151Z,91968.00
2019-05-14T08:52:08.870Z,88384.00
2019-05-14T08:53:09.090Z,89440.00
2019-05-14T08:54:08.229Z,89792.00
2019-05-14T08:55:10.895Z,91040.00
2019-05-14T08:56:08.717Z,89792.00
2019-05-14T08:57:09.335Z,88896.00
2019-05-14T08:58:13.326Z,91456.00
2019-05-14T08:59:08.709Z,93120.00
2019-05-14T09:00:13.491Z,93056.00
2019-05-14T09:01:08.180Z,94464.00
2019-05-14T09:02:10.097Z,95392.00
2019-05-14T09:03:08.353Z,95008.00
2019-05-14T09:04:08.808Z,96928.00
2019-05-14T09:05:09.851Z,97824.00
2019-05-14T09:06:06.135Z,96256.00
2019-05-14T09:07:06.066Z,94784.00
2019-05-14T09:08:08.617Z,93920.00
2019-05-14T09:09:05.915Z,92224.00
2019-05-14T09:10:08.476Z,90272.00
2019-05-14T09:11:05.781Z,88448.00
2019-05-14T09:12:12.187Z,88768.00
2019-05-14T09:13:05.632Z,93952.00
2019-05-14T09:14:05.548Z,94944.00
2019-05-14T09:15:05.508Z,95968.00
2019-05-14T09:16:05.403Z,98400.00
2019-05-14T09:17:05.332Z,92320.00
2019-05-14T09:18:05.290Z,100736.00
2019-05-14T09:19:05.185Z,98528.00
2019-05-14T09:20:07.204Z,101280.00
2019-05-14T09:21:05.063Z,103776.00
2019-05-14T09:22:04.970Z,100960.00
2019-05-14T09:23:04.891Z,102624.00
2019-05-14T09:24:04.842Z,98368.00
2019-05-14T09:25:04.746Z,99616.00
2019-05-14T09:26:04.690Z,99552.00
2019-05-14T09:27:05.562Z,100864.00
2019-05-14T09:28:04.553Z,101984.00
2019-05-14T09:29:18.157Z,100704.00
2019-05-14T09:30:04.392Z,102912.00
2019-05-14T09:31:04.318Z,100192.00
2019-05-14T09:32:04.233Z,99808.00
2019-05-14T09:33:04.170Z,100384.00
2019-05-14T09:34:04.096Z,101728.00
2019-05-14T09:35:04.034Z,101472.00
2019-05-14T09:36:14.800Z,102880.00
2019-05-14T09:37:03.880Z,105024.00
2019-05-14T09:38:03.808Z,106656.00
2019-05-14T09:39:04.732Z,101472.00
2019-05-14T09:40:03.658Z,105504.00
2019-05-14T09:41:11.398Z,105824.00
2019-05-14T09:42:03.517Z,107200.00
2019-05-14T09:43:03.451Z,109632.00
2019-05-14T09:44:03.368Z,112832.00
2019-05-14T09:45:03.335Z,110496.00
2019-05-14T09:46:03.248Z,108800.00
2019-05-14T09:47:03.148Z,109024.00
2019-05-14T09:48:03.086Z,108064.00
2019-05-14T09:49:03.018Z,110304.00
2019-05-14T09:50:16.386Z,115424.00
2019-05-14T09:51:02.878Z,53344.00
2019-05-14T09:52:02.800Z,119296.00
2019-05-14T09:53:02.723Z,102176.00
2019-05-14T09:54:02.649Z,97248.00
2019-05-14T09:55:02.580Z,96480.00
2019-05-14T09:56:02.531Z,99616.00
2019-05-14T09:57:02.458Z,112256.00
2019-05-14T09:58:02.365Z,113984.00
2019-05-14T09:59:02.290Z,116736.00
2019-05-14T10:00:02.214Z,115104.00
2019-05-14T10:01:02.164Z,112800.00
2019-05-14T10:02:02.063Z,112448.00
2019-05-14T10:03:02.004Z,53824.00
2019-05-14T10:04:01.926Z,28352.00
2019-05-14T10:05:01.860Z,115168.00
2019-05-14T10:06:01.787Z,115552.00
2019-05-14T10:07:01.709Z,113184.00
2019-05-14T10:08:01.631Z,112704.00
2019-05-14T10:09:01.555Z,110624.00
2019-05-14T10:10:01.570Z,111872.00
2019-05-14T10:11:01.435Z,111232.00
2019-05-14T10:12:01.342Z,113568.00
2019-05-14T10:13:01.864Z,111968.00
2019-05-14T10:14:01.193Z,111264.00
2019-05-14T10:15:01.122Z,111712.00
2019-05-14T10:16:01.067Z,108896.00
2019-05-14T10:17:00.973Z,111328.00
2019-05-14T10:18:00.919Z,112224.00
2019-05-14T10:19:00.843Z,116768.00
2019-05-14T10:20:00.756Z,120736.00
2019-05-14T10:21:00.694Z,114976.00
2019-05-14T10:22:00.617Z,118656.00
2019-05-14T10:23:00.537Z,112960.00
2019-05-14T10:24:00.465Z,113280.00
2019-05-14T10:25:00.400Z,112960.00
2019-05-14T10:26:00.340Z,114048.00
2019-05-14T10:27:00.258Z,115296.00
2019-05-14T10:28:00.186Z,115392.00
2019-05-14T10:29:00.110Z,119712.00
2019-05-14T10:30:00.036Z,28352.00
2019-05-14T10:31:03.342Z,36928.00
2019-05-14T10:31:59.895Z,98112.00
2019-05-14T10:33:09.645Z,27744.00
2019-05-14T10:33:59.752Z,24224.00
2019-05-14T10:34:59.681Z,21952.00
2019-05-14T10:35:59.629Z,40512.00
2019-05-14T10:36:59.530Z,122176.00
2019-05-14T10:37:59.976Z,120800.00
2019-05-14T10:38:59.381Z,119712.00
2019-05-14T10:39:59.307Z,121952.00
2019-05-14T10:40:59.247Z,127904.00
2019-05-14T10:41:59.155Z,111104.00
2019-05-14T10:42:59.079Z,35744.00
2019-05-14T10:43:59.193Z,131040.00
2019-05-14T10:44:58.935Z,126976.00
2019-05-14T10:45:58.869Z,119072.00
2019-05-14T10:46:58.793Z,116960.00
2019-05-14T10:47:58.765Z,118240.00
2019-05-14T10:49:14.663Z,116160.00
2019-05-14T10:49:58.563Z,117472.00
2019-05-14T10:51:03.288Z,119616.00
2019-05-14T10:51:58.659Z,115264.00
2019-05-14T10:52:59.446Z,118656.00
2019-05-14T10:53:59.385Z,120384.00
2019-05-14T10:54:59.067Z,121184.00
2019-05-14T10:55:58.342Z,121280.00
2019-05-14T10:56:59.069Z,122336.00
2019-05-14T10:57:58.577Z,124896.00
2019-05-14T10:58:58.417Z,122944.00
2019-05-14T10:59:59.170Z,127584.00
2019-05-14T11:00:58.862Z,124512.00
2019-05-14T11:01:57.672Z,25856.00
2019-05-14T11:02:57.607Z,121664.00
2019-05-14T11:03:57.530Z,121184.00
2019-05-14T11:04:58.671Z,124288.00
2019-05-14T11:05:58.791Z,122496.00
2019-05-14T11:06:57.321Z,126080.00
2019-05-14T11:07:58.728Z,127840.00
2019-05-14T11:08:57.170Z,126432.00
2019-05-14T11:09:57.090Z,124832.00
2019-05-14T11:11:03.216Z,40896.00
2019-05-14T11:11:58.373Z,31648.00
2019-05-14T11:12:59.332Z,36896.00
2019-05-14T11:13:56.789Z,131232.00
2019-05-14T11:14:56.739Z,129728.00
2019-05-14T11:15:59.276Z,134400.00
2019-05-14T11:16:59.025Z,139520.00
2019-05-14T11:17:56.510Z,139392.00
2019-05-14T11:18:57.549Z,123616.00
2019-05-14T11:19:58.520Z,113184.00
2019-05-14T11:21:16.233Z,116480.00
2019-05-14T11:21:57.948Z,112096.00
2019-05-14T11:22:58.322Z,122720.00
2019-05-14T11:23:58.363Z,135488.00
2019-05-14T11:24:58.889Z,130656.00
2019-05-14T11:25:58.041Z,131872.00
2019-05-14T11:26:55.873Z,133216.00
2019-05-14T11:27:55.770Z,141024.00
2019-05-14T11:28:58.348Z,145376.00
2019-05-14T11:29:55.632Z,145184.00
2019-05-14T11:30:55.566Z,144192.00
2019-05-14T11:31:55.499Z,140096.00
2019-05-14T11:32:55.414Z,137856.00
2019-05-14T11:33:55.353Z,150432.00
2019-05-14T11:34:55.264Z,167104.00
2019-05-14T11:35:55.197Z,140864.00
2019-05-14T11:36:55.138Z,161152.00
2019-05-14T11:37:55.068Z,149568.00
2019-05-14T11:38:54.980Z,143264.00
2019-05-14T11:39:54.909Z,139328.00
2019-05-14T11:40:54.849Z,142912.00
2019-05-14T11:41:54.784Z,135648.00
2019-05-14T11:42:54.696Z,134400.00
2019-05-14T11:43:54.631Z,61408.00
2019-05-14T11:44:54.551Z,131264.00
2019-05-14T11:45:54.482Z,129792.00
2019-05-14T11:46:58.318Z,133760.00
2019-05-14T11:47:54.339Z,136288.00
2019-05-14T11:48:54.269Z,142880.00
2019-05-14T11:49:54.202Z,148704.00
2019-05-14T11:50:54.123Z,151648.00
2019-05-14T11:52:04.071Z,155264.00
2019-05-14T11:52:53.979Z,159040.00
2019-05-14T11:53:53.921Z,158912.00
2019-05-14T11:54:53.850Z,159296.00
2019-05-14T11:55:53.777Z,157856.00
2019-05-14T11:56:53.723Z,148416.00
2019-05-14T11:57:53.627Z,146976.00
2019-05-14T11:58:53.568Z,35552.00
2019-05-14T11:59:53.499Z,136064.00
2019-05-14T12:00:53.414Z,138816.00
2019-05-14T12:01:55.061Z,135776.00
2019-05-14T12:02:53.274Z,137696.00
2019-05-14T12:03:53.193Z,130176.00
2019-05-14T12:04:53.127Z,131712.00
2019-05-14T12:05:53.194Z,134368.00
2019-05-14T12:06:53.024Z,139104.00
2019-05-14T12:07:52.905Z,140384.00